Time;durP1;ratioP1;P1;durP2;ratioP2;P2;SDS_P1;SDS_P2;PMS_P1;PMS_P2;Temp;Humidity;BMP_temperature;BMP_pressure;BME280_temperature;BME280_humidity;BME280_pressure;Samples;Min_cycle;Max_cycle;Signal;HPM_P1;HPM_P2
2022/09/13 00:01:30;;;;;;;5.00;3.30;;;;;;;;;;4994843;28;20890;-69
2022/09/13 00:03:57;;;;;;;3.73;3.27;;;;;;;;;;4995527;28;20579;-68
2022/09/13 00:06:25;;;;;;;4.10;3.30;;;;;;;;;;4994811;28;20472;-68
2022/09/13 00:08:55;;;;;;;6.30;3.67;;;;;;;;;;4993793;28;20527;-70
2022/09/13 00:11:24;;;;;;;5.23;4.03;;;;;;;;;;4994131;28;20658;-69
2022/09/13 00:13:51;;;;;;;7.70;3.33;;;;;;;;;;4987214;28;20546;-69
2022/09/13 00:16:19;;;;;;;4.97;3.13;;;;;;;;;;4994513;28;20459;-69
2022/09/13 00:18:46;;;;;;;3.50;2.87;;;;;;;;;;4993314;28;20521;-69
2022/09/13 00:21:14;;;;;;;4.00;2.67;;;;;;;;;;4994726;28;20451;-69
2022/09/13 00:23:43;;;;;;;4.20;3.27;;;;;;;;;;4994437;28;20468;-69
2022/09/13 00:26:12;;;;;;;3.20;2.77;;;;;;;;;;4993541;28;20455;-70
2022/09/13 00:28:39;;;;;;;4.30;2.87;;;;;;;;;;4994665;28;20514;-68
2022/09/13 00:31:08;;;;;;;5.30;3.20;;;;;;;;;;4994621;28;20491;-70
2022/09/13 00:33:35;;;;;;;4.43;2.90;;;;;;;;;;4994565;28;20488;-67
2022/09/13 00:36:04;;;;;;;4.07;3.30;;;;;;;;;;4994312;28;20479;-68
2022/09/13 00:38:31;;;;;;;3.90;2.60;;;;;;;;;;4995142;28;20510;-68
2022/09/13 00:41:00;;;;;;;3.90;3.30;;;;;;;;;;4994535;28;20488;-68
2022/09/13 00:43:48;;;;;;;4.47;3.00;;;;;;;;;;4994433;28;20555;-68
2022/09/13 00:46:17;;;;;;;4.57;2.70;;;;;;;;;;4993479;28;20550;-68
2022/09/13 00:48:46;;;;;;;4.53;2.90;;;;;;;;;;4994969;28;20526;-69
2022/09/13 00:51:14;;;;;;;3.53;2.83;;;;;;;;;;4994595;28;20547;-68
2022/09/13 00:53:44;;;;;;;5.07;3.10;;;;;;;;;;4995075;28;20492;-69
2022/09/13 00:56:13;;;;;;;3.40;2.80;;;;;;;;;;4993980;28;20451;-68
2022/09/13 00:58:42;;;;;;;3.80;2.47;;;;;;;;;;4993485;28;20912;-68
2022/09/13 01:01:11;;;;;;;4.87;2.60;;;;;;;;;;4994823;28;20539;-68
2022/09/13 01:03:40;;;;;;;4.70;2.83;;;;;;;;;;4993473;28;20475;-69
2022/09/13 01:06:08;;;;;;;3.17;2.40;;;;;;;;;;4993639;28;20460;-69
2022/09/13 01:08:36;;;;;;;4.47;2.67;;;;;;;;;;4993549;28;20543;-68
2022/09/13 01:11:06;;;;;;;4.37;2.77;;;;;;;;;;4994002;28;20449;-69
2022/09/13 01:13:34;;;;;;;4.03;2.90;;;;;;;;;;4993012;28;20531;-69
2022/09/13 01:16:01;;;;;;;5.10;2.97;;;;;;;;;;4993299;28;20488;-68
2022/09/13 01:18:29;;;;;;;4.17;2.50;;;;;;;;;;4994558;28;20460;-68
2022/09/13 01:21:12;;;;;;;6.17;3.60;;;;;;;;;;4993681;28;20548;-68
2022/09/13 01:23:57;;;;;;;4.20;3.53;;;;;;;;;;4994138;28;20468;-68
2022/09/13 01:26:35;;;;;;;5.77;3.30;;;;;;;;;;4993621;28;20467;-68
2022/09/13 01:29:26;;;;;;;5.03;2.57;;;;;;;;;;4993497;28;20543;-68
2022/09/13 01:31:58;;;;;;;3.60;2.80;;;;;;;;;;4998327;28;20464;-69
2022/09/13 01:34:29;;;;;;;5.60;3.27;;;;;;;;;;4993061;28;20535;-69
2022/09/13 01:37:25;;;;;;;4.07;2.80;;;;;;;;;;4993403;28;20539;-69
2022/09/13 01:40:12;;;;;;;4.00;3.27;;;;;;;;;;4992340;28;20464;-69
2022/09/13 01:42:46;;;;;;;7.03;3.80;;;;;;;;;;4993611;28;20484;-69
2022/09/13 01:45:21;;;;;;;6.00;3.17;;;;;;;;;;4992915;28;20533;-70
2022/09/13 01:47:51;;;;;;;9.37;5.37;;;;;;;;;;4992629;28;21015;-69
2022/09/13 01:50:22;;;;;;;6.87;3.40;;;;;;;;;;4992279;28;20476;-69
2022/09/13 01:52:53;;;;;;;10.90;4.73;;;;;;;;;;4993748;28;20459;-70
2022/09/13 01:55:27;;;;;;;4.30;3.47;;;;;;;;;;4993355;28;20460;-70
2022/09/13 01:57:56;;;;;;;6.07;3.70;;;;;;;;;;5006259;28;20889;-70
2022/09/13 02:00:24;;;;;;;5.00;3.43;;;;;;;;;;4974372;28;20461;-70
2022/09/13 02:02:53;;;;;;;8.97;3.97;;;;;;;;;;4977510;28;20459;-70
2022/09/13 02:05:23;;;;;;;4.40;3.77;;;;;;;;;;4993655;28;20460;-69
2022/09/13 02:07:54;;;;;;;5.90;4.97;;;;;;;;;;4992749;28;20480;-69
2022/09/13 02:10:23;;;;;;;7.90;3.77;;;;;;;;;;4992769;28;20908;-69
2022/09/13 02:12:52;;;;;;;7.10;4.47;;;;;;;;;;4993191;28;20726;-69
2022/09/13 02:15:23;;;;;;;6.50;4.90;;;;;;;;;;4984131;28;20472;-69
2022/09/13 02:17:52;;;;;;;6.00;3.83;;;;;;;;;;4976211;28;20453;-69
2022/09/13 02:20:23;;;;;;;5.53;4.10;;;;;;;;;;4976801;28;20461;-69
2022/09/13 02:22:54;;;;;;;6.33;4.10;;;;;;;;;;4977634;28;20548;-69
2022/09/13 02:25:23;;;;;;;8.17;4.63;;;;;;;;;;4977496;28;20863;-69
2022/09/13 02:27:53;;;;;;;4.70;4.20;;;;;;;;;;4992963;28;20464;-70
2022/09/13 02:30:21;;;;;;;6.43;3.77;;;;;;;;;;5026861;28;20614;-70
2022/09/13 02:32:50;;;;;;;7.30;4.30;;;;;;;;;;4992921;28;20865;-69
2022/09/13 02:35:22;;;;;;;5.33;4.57;;;;;;;;;;4978849;28;20460;-69
2022/09/13 02:37:57;;;;;;;4.83;3.80;;;;;;;;;;4968301;28;20457;-69
2022/09/13 02:40:26;;;;;;;6.67;4.53;;;;;;;;;;4977006;28;20538;-69
2022/09/13 02:42:56;;;;;;;6.83;4.20;;;;;;;;;;4976914;28;20453;-69
2022/09/13 02:45:28;;;;;;;7.83;4.40;;;;;;;;;;4977971;28;20465;-69
2022/09/13 02:47:58;;;;;;;5.27;4.37;;;;;;;;;;4993131;28;20452;-70
2022/09/13 02:50:32;;;;;;;6.50;4.80;;;;;;;;;;4993568;28;20504;-69
2022/09/13 02:53:04;;;;;;;6.83;4.90;;;;;;;;;;4993361;28;20463;-69
2022/09/13 02:55:34;;;;;;;7.37;5.33;;;;;;;;;;4991753;28;20889;-69
2022/09/13 02:58:03;;;;;;;9.00;5.57;;;;;;;;;;4991829;28;20543;-69
2022/09/13 03:00:31;;;;;;;7.20;5.23;;;;;;;;;;4992231;28;20982;-69
2022/09/13 03:03:00;;;;;;;6.30;5.10;;;;;;;;;;4992774;28;20444;-69
2022/09/13 03:05:27;;;;;;;5.17;4.43;;;;;;;;;;4992701;28;20788;-69
2022/09/13 03:07:55;;;;;;;8.00;4.90;;;;;;;;;;4991998;28;20726;-70
2022/09/13 03:10:23;;;;;;;7.70;5.40;;;;;;;;;;4992175;28;20613;-70
2022/09/13 03:13:03;;;;;;;13.17;5.00;;;;;;;;;;4984164;28;20816;-70
2022/09/13 03:15:36;;;;;;;7.07;5.00;;;;;;;;;;4992562;28;20455;-70
2022/09/13 03:18:07;;;;;;;8.90;5.83;;;;;;;;;;4991442;28;20447;-70
2022/09/13 03:20:39;;;;;;;6.33;5.17;;;;;;;;;;4992574;28;20456;-70
2022/09/13 03:23:17;;;;;;;8.97;5.40;;;;;;;;;;4992352;28;20513;-70
2022/09/13 03:26:02;;;;;;;5.90;5.07;;;;;;;;;;4992388;28;20456;-70
2022/09/13 03:28:35;;;;;;;9.50;5.47;;;;;;;;;;4990382;28;20488;-70
2022/09/13 03:31:04;;;;;;;6.60;5.17;;;;;;;;;;4992092;28;20472;-70
2022/09/13 03:33:35;;;;;;;7.10;5.20;;;;;;;;;;4991849;28;21006;-70
2022/09/13 03:36:05;;;;;;;7.67;5.50;;;;;;;;;;4991493;28;20494;-70
2022/09/13 03:38:38;;;;;;;7.30;5.77;;;;;;;;;;4992193;28;20499;-70
2022/09/13 03:41:07;;;;;;;7.37;5.87;;;;;;;;;;4992080;28;20448;-70
2022/09/13 03:43:37;;;;;;;7.53;5.53;;;;;;;;;;4991261;28;20452;-70
2022/09/13 03:46:05;;;;;;;8.53;5.90;;;;;;;;;;4992013;28;20551;-70
2022/09/13 03:48:35;;;;;;;7.93;6.20;;;;;;;;;;4991471;28;20468;-70
2022/09/13 03:51:04;;;;;;;8.30;5.63;;;;;;;;;;4991160;28;20761;-70
2022/09/13 03:53:32;;;;;;;11.20;6.83;;;;;;;;;;4992008;28;20762;-70
2022/09/13 03:55:59;;;;;;;7.67;5.50;;;;;;;;;;4991156;28;20475;-70
2022/09/13 03:58:27;;;;;;;7.10;5.80;;;;;;;;;;4992785;28;20456;-70
2022/09/13 04:00:56;;;;;;;8.40;6.43;;;;;;;;;;4990955;28;20541;-70
2022/09/13 04:03:23;;;;;;;10.97;6.97;;;;;;;;;;4992068;28;21119;-70
2022/09/13 04:05:50;;;;;;;8.33;6.53;;;;;;;;;;4990933;28;20472;-69
2022/09/13 04:08:17;;;;;;;8.17;5.87;;;;;;;;;;4991538;28;20460;-69
2022/09/13 04:10:44;;;;;;;9.03;6.70;;;;;;;;;;4992599;28;20559;-70
2022/09/13 04:13:11;;;;;;;8.60;6.20;;;;;;;;;;4990761;28;20464;-70
2022/09/13 04:15:38;;;;;;;9.97;6.17;;;;;;;;;;4990764;28;20468;-70
2022/09/13 04:18:07;;;;;;;8.10;5.97;;;;;;;;;;4991713;28;20449;-69
2022/09/13 04:20:35;;;;;;;8.37;6.23;;;;;;;;;;4991445;28;20486;-70
2022/09/13 04:23:03;;;;;;;7.87;5.80;;;;;;;;;;4991621;28;20460;-70
2022/09/13 04:25:30;;;;;;;9.80;7.37;;;;;;;;;;4990359;28;20443;-70
2022/09/13 04:27:58;;;;;;;8.40;5.93;;;;;;;;;;4990636;28;20449;-69
2022/09/13 04:30:26;;;;;;;7.13;6.23;;;;;;;;;;4991227;28;20464;-70
2022/09/13 04:32:53;;;;;;;8.20;6.40;;;;;;;;;;4990495;28;20492;-70
2022/09/13 04:35:21;;;;;;;9.40;6.40;;;;;;;;;;4991044;28;21040;-70
2022/09/13 04:37:48;;;;;;;7.63;6.60;;;;;;;;;;4990869;28;20452;-70
2022/09/13 04:40:16;;;;;;;11.20;7.83;;;;;;;;;;4991006;28;20460;-70
2022/09/13 04:42:44;;;;;;;8.40;6.70;;;;;;;;;;4994225;28;20854;-70
2022/09/13 04:45:11;;;;;;;6.93;6.10;;;;;;;;;;4992887;28;20467;-69
2022/09/13 04:47:39;;;;;;;8.63;5.83;;;;;;;;;;4993674;28;20535;-70
2022/09/13 04:50:06;;;;;;;11.83;7.23;;;;;;;;;;4992209;28;20563;-70
2022/09/13 04:52:34;;;;;;;10.17;7.43;;;;;;;;;;4992700;28;20812;-70
2022/09/13 04:55:01;;;;;;;8.30;6.50;;;;;;;;;;4992265;28;20992;-69
2022/09/13 04:57:28;;;;;;;10.97;7.00;;;;;;;;;;4992635;28;20486;-69
2022/09/13 04:59:56;;;;;;;9.30;6.63;;;;;;;;;;4992145;28;20504;-69
2022/09/13 05:02:23;;;;;;;9.73;6.90;;;;;;;;;;4992137;28;20452;-70
2022/09/13 05:04:50;;;;;;;9.47;7.80;;;;;;;;;;4992721;28;20456;-69
2022/09/13 05:07:17;;;;;;;12.23;6.93;;;;;;;;;;4989592;28;20562;-69
2022/09/13 05:09:45;;;;;;;8.43;7.00;;;;;;;;;;4991606;28;20464;-69
2022/09/13 05:12:12;;;;;;;8.17;6.83;;;;;;;;;;4991839;28;21029;-70
2022/09/13 05:14:39;;;;;;;12.20;7.20;;;;;;;;;;4991837;28;20583;-69
2022/09/13 05:17:07;;;;;;;8.30;5.77;;;;;;;;;;4990529;28;20452;-68
2022/09/13 05:19:34;;;;;;;10.87;7.33;;;;;;;;;;4990560;28;20455;-70
2022/09/13 05:22:01;;;;;;;9.43;7.33;;;;;;;;;;4991755;28;20745;-70
2022/09/13 05:24:28;;;;;;;9.93;7.20;;;;;;;;;;4990576;28;20463;-70
2022/09/13 05:26:56;;;;;;;9.00;6.70;;;;;;;;;;4990243;28;20464;-70
2022/09/13 05:29:23;;;;;;;10.20;7.00;;;;;;;;;;4990753;28;20479;-70
2022/09/13 05:31:51;;;;;;;9.87;7.90;;;;;;;;;;4991264;28;20456;-70
2022/09/13 05:34:20;;;;;;;8.50;6.63;;;;;;;;;;4990056;28;20488;-70
2022/09/13 05:36:49;;;;;;;8.43;6.40;;;;;;;;;;5024596;28;21059;-70
2022/09/13 05:39:17;;;;;;;12.40;7.67;;;;;;;;;;4991152;28;20467;-70
2022/09/13 05:41:44;;;;;;;8.87;7.60;;;;;;;;;;4990056;28;20878;-70
2022/09/13 05:44:12;;;;;;;8.43;7.13;;;;;;;;;;4988846;28;20733;-71
2022/09/13 05:46:39;;;;;;;8.73;6.97;;;;;;;;;;4988873;28;20465;-70
2022/09/13 05:49:06;;;;;;;10.50;7.90;;;;;;;;;;4990478;28;20444;-70
2022/09/13 05:51:35;;;;;;;11.97;8.33;;;;;;;;;;4988248;28;20541;-70
2022/09/13 05:54:04;;;;;;;13.17;8.30;;;;;;;;;;4988167;28;20667;-70
2022/09/13 05:56:32;;;;;;;11.93;8.77;;;;;;;;;;4990132;28;20483;-70
2022/09/13 05:58:59;;;;;;;13.10;9.60;;;;;;;;;;4989814;28;20452;-70
2022/09/13 06:01:28;;;;;;;11.83;8.73;;;;;;;;;;4989281;28;20495;-70
2022/09/13 06:03:55;;;;;;;12.10;9.23;;;;;;;;;;4979607;28;20928;-70
2022/09/13 06:06:23;;;;;;;14.27;10.37;;;;;;;;;;4974287;28;20556;-70
2022/09/13 06:08:52;;;;;;;12.87;9.27;;;;;;;;;;4972576;28;20511;-70
2022/09/13 06:11:20;;;;;;;13.00;8.60;;;;;;;;;;4980801;28;20478;-70
2022/09/13 06:13:47;;;;;;;10.90;8.63;;;;;;;;;;4980746;28;21251;-69
2022/09/13 06:16:15;;;;;;;13.03;8.97;;;;;;;;;;4990321;28;20460;-70
2022/09/13 06:18:43;;;;;;;12.30;9.40;;;;;;;;;;4991029;28;20469;-70
2022/09/13 06:27:18;;;;;;;11.27;8.80;;;;;;;;;;4989962;28;20443;-71
2022/09/13 06:29:45;;;;;;;11.53;9.23;;;;;;;;;;4996005;28;20564;-71
2022/09/13 06:32:12;;;;;;;12.83;9.03;;;;;;;;;;5064194;28;20484;-71
2022/09/13 06:34:39;;;;;;;14.00;11.10;;;;;;;;;;4971185;28;20492;-71
2022/09/13 06:37:07;;;;;;;13.67;10.50;;;;;;;;;;4977937;28;20473;-70
2022/09/13 06:39:34;;;;;;;17.37;11.27;;;;;;;;;;4989644;28;20452;-71
2022/09/13 06:42:01;;;;;;;14.93;11.07;;;;;;;;;;4989489;28;20477;-71
2022/09/13 06:44:29;;;;;;;18.90;10.83;;;;;;;;;;4985506;28;20542;-71
2022/09/13 06:46:56;;;;;;;15.13;11.27;;;;;;;;;;4990869;28;20540;-71
2022/09/13 06:49:23;;;;;;;17.83;11.10;;;;;;;;;;4971292;28;20445;-70
2022/09/13 06:51:51;;;;;;;19.23;11.27;;;;;;;;;;4970896;28;20463;-70
2022/09/13 06:54:19;;;;;;;16.23;11.10;;;;;;;;;;4971102;28;20495;-70
2022/09/13 06:56:46;;;;;;;22.23;11.10;;;;;;;;;;4991631;28;20461;-70
2022/09/13 06:59:13;;;;;;;18.03;10.67;;;;;;;;;;4984862;28;21037;-71
2022/09/13 07:01:41;;;;;;;16.10;11.23;;;;;;;;;;4988596;28;20460;-71
2022/09/13 07:04:10;;;;;;;20.13;10.70;;;;;;;;;;4990879;28;20870;-70
2022/09/13 07:06:38;;;;;;;15.30;10.70;;;;;;;;;;4986804;28;20460;-69
2022/09/13 07:09:08;;;;;;;14.67;10.90;;;;;;;;;;4988944;28;20826;-70
2022/09/13 07:11:36;;;;;;;17.77;11.90;;;;;;;;;;4988667;28;20478;-70
2022/09/13 07:14:05;;;;;;;14.93;11.90;;;;;;;;;;4984941;28;20493;-69
2022/09/13 07:16:36;;;;;;;20.60;11.33;;;;;;;;;;4985931;28;20445;-70
2022/09/13 07:19:04;;;;;;;17.90;12.53;;;;;;;;;;4987777;28;20464;-69
2022/09/13 07:21:32;;;;;;;13.90;10.50;;;;;;;;;;4989025;28;20502;-69
2022/09/13 07:24:06;;;;;;;18.03;12.23;;;;;;;;;;4983305;28;20479;-71
2022/09/13 07:26:35;;;;;;;18.90;11.97;;;;;;;;;;4972660;28;20463;-70
2022/09/13 07:29:04;;;;;;;13.90;11.10;;;;;;;;;;4987814;28;20480;-70
2022/09/13 07:31:32;;;;;;;14.60;11.60;;;;;;;;;;4978570;28;20469;-70
2022/09/13 07:34:01;;;;;;;13.87;11.00;;;;;;;;;;4989518;28;20495;-71
2022/09/13 07:36:29;;;;;;;16.40;10.77;;;;;;;;;;4982267;28;20456;-70
2022/09/13 07:38:56;;;;;;;14.77;10.90;;;;;;;;;;4983445;28;20455;-69
2022/09/13 07:41:25;;;;;;;17.10;11.30;;;;;;;;;;4974548;28;20445;-70
2022/09/13 07:43:54;;;;;;;14.00;11.43;;;;;;;;;;4976340;28;20533;-71
2022/09/13 07:46:22;;;;;;;20.80;13.60;;;;;;;;;;4974295;28;20655;-71
2022/09/13 07:48:50;;;;;;;15.50;11.20;;;;;;;;;;4981435;28;20509;-70
2022/09/13 07:51:18;;;;;;;17.03;10.50;;;;;;;;;;4973416;28;20449;-70
2022/09/13 07:53:46;;;;;;;16.00;11.80;;;;;;;;;;4981858;28;20577;-70
2022/09/13 07:56:14;;;;;;;17.13;12.10;;;;;;;;;;4989579;28;20476;-70
2022/09/13 07:58:42;;;;;;;23.37;12.60;;;;;;;;;;4990171;28;20704;-71
2022/09/13 08:01:11;;;;;;;16.43;11.73;;;;;;;;;;4981884;28;20520;-70
2022/09/13 08:03:39;;;;;;;18.87;13.20;;;;;;;;;;4981971;28;20480;-71
2022/09/13 08:06:08;;;;;;;16.47;11.50;;;;;;;;;;4976977;28;20490;-71
2022/09/13 08:08:39;;;;;;;18.20;12.10;;;;;;;;;;4971563;28;20467;-72
2022/09/13 08:11:07;;;;;;;16.63;12.10;;;;;;;;;;4979371;28;20479;-72
2022/09/13 08:13:34;;;;;;;17.23;12.43;;;;;;;;;;4986290;28;20469;-71
2022/09/13 08:16:03;;;;;;;21.20;12.23;;;;;;;;;;4990212;28;20448;-68
2022/09/13 08:18:31;;;;;;;18.43;12.20;;;;;;;;;;4991268;28;20821;-71
2022/09/13 08:20:58;;;;;;;21.67;13.67;;;;;;;;;;4992465;28;20571;-70
2022/09/13 08:23:26;;;;;;;19.10;12.83;;;;;;;;;;4988138;28;20491;-71
2022/09/13 08:25:53;;;;;;;14.37;10.07;;;;;;;;;;4978846;28;20784;-70
2022/09/13 08:28:21;;;;;;;13.53;10.30;;;;;;;;;;4991673;28;20875;-70
2022/09/13 08:30:49;;;;;;;16.80;10.90;;;;;;;;;;4989173;28;20493;-70
2022/09/13 08:33:17;;;;;;;15.27;10.73;;;;;;;;;;4982937;28;20467;-71
2022/09/13 08:35:54;;;;;;;14.87;9.80;;;;;;;;;;4981634;28;20530;-71
2022/09/13 08:38:21;;;;;;;15.47;9.53;;;;;;;;;;4986998;28;20472;-70
2022/09/13 08:40:50;;;;;;;15.60;11.13;;;;;;;;;;4989168;28;20475;-71
2022/09/13 08:43:22;;;;;;;14.10;10.23;;;;;;;;;;4985114;28;20472;-69
2022/09/13 08:45:50;;;;;;;11.60;9.63;;;;;;;;;;4988903;28;20581;-70
2022/09/13 08:48:19;;;;;;;14.53;9.50;;;;;;;;;;4988756;28;20511;-70
2022/09/13 08:50:50;;;;;;;19.73;9.17;;;;;;;;;;4985354;28;20768;-70
2022/09/13 08:53:20;;;;;;;13.33;10.30;;;;;;;;;;4990662;28;20472;-70
2022/09/13 08:55:50;;;;;;;13.57;10.13;;;;;;;;;;4986997;28;20508;-70
2022/09/13 08:58:29;;;;;;;12.47;9.03;;;;;;;;;;4991833;28;20471;-70
2022/09/13 09:01:01;;;;;;;11.83;9.20;;;;;;;;;;4988380;28;20511;-70
2022/09/13 09:03:32;;;;;;;12.17;9.47;;;;;;;;;;4992047;28;20524;-69
2022/09/13 09:06:00;;;;;;;20.90;11.03;;;;;;;;;;4982993;28;20891;-69
2022/09/13 09:08:33;;;;;;;17.03;11.40;;;;;;;;;;4979904;28;20977;-70
2022/09/13 09:11:04;;;;;;;15.03;10.47;;;;;;;;;;4981673;28;20476;-70
2022/09/13 09:13:33;;;;;;;17.07;9.87;;;;;;;;;;4990793;28;21141;-70
2022/09/13 09:16:01;;;;;;;12.47;9.47;;;;;;;;;;4990621;28;20445;-71
2022/09/13 09:18:31;;;;;;;13.33;9.80;;;;;;;;;;4987982;28;20473;-70
2022/09/13 09:20:59;;;;;;;14.97;9.13;;;;;;;;;;4989744;28;20494;-68
2022/09/13 09:23:28;;;;;;;19.00;9.40;;;;;;;;;;4991736;28;20471;-70
2022/09/13 09:25:57;;;;;;;11.90;9.80;;;;;;;;;;4986511;28;20449;-69
2022/09/13 09:28:30;;;;;;;9.83;7.77;;;;;;;;;;4987075;28;20465;-69
2022/09/13 09:30:59;;;;;;;13.47;7.80;;;;;;;;;;4983469;28;20468;-70
2022/09/13 09:33:34;;;;;;;13.30;9.90;;;;;;;;;;4989909;28;20465;-70
2022/09/13 09:36:07;;;;;;;11.80;8.30;;;;;;;;;;4988958;28;20444;-70
2022/09/13 09:38:41;;;;;;;7.83;7.00;;;;;;;;;;4985459;28;20740;-71
2022/09/13 09:41:14;;;;;;;12.50;7.50;;;;;;;;;;4985047;28;20468;-71
2022/09/13 09:43:44;;;;;;;10.63;8.60;;;;;;;;;;4986013;28;20541;-70
2022/09/13 09:46:25;;;;;;;9.10;7.10;;;;;;;;;;4978974;28;20547;-71
2022/09/13 09:48:54;;;;;;;9.03;7.10;;;;;;;;;;4967868;28;20453;-70
2022/09/13 09:51:25;;;;;;;8.50;5.97;;;;;;;;;;5023230;28;20473;-70
2022/09/13 09:53:55;;;;;;;9.63;5.33;;;;;;;;;;4985358;28;20782;-69
2022/09/13 09:56:35;;;;;;;15.80;5.07;;;;;;;;;;4974826;28;20934;-70
2022/09/13 09:59:29;;;;;;;7.13;4.13;;;;;;;;;;4983956;28;20570;-69
2022/09/13 10:01:57;;;;;;;7.43;3.30;;;;;;;;;;4970045;28;21727;-69
2022/09/13 10:04:25;;;;;;;5.50;3.50;;;;;;;;;;4961855;28;21022;-70
2022/09/13 10:07:10;;;;;;;7.83;3.70;;;;;;;;;;4960540;28;20523;-69
2022/09/13 10:09:39;;;;;;;9.50;4.07;;;;;;;;;;4966704;28;20476;-69
2022/09/13 10:12:07;;;;;;;7.97;4.23;;;;;;;;;;4971444;28;20465;-71
2022/09/13 10:14:38;;;;;;;11.33;3.87;;;;;;;;;;4964774;28;20546;-70
2022/09/13 10:17:14;;;;;;;5.63;3.60;;;;;;;;;;4969285;28;20555;-70
2022/09/13 10:19:41;;;;;;;4.73;3.63;;;;;;;;;;4963055;28;20468;-70
2022/09/13 10:22:11;;;;;;;4.10;2.57;;;;;;;;;;4966688;28;20469;-70
2022/09/13 10:24:41;;;;;;;5.23;2.20;;;;;;;;;;4963211;28;20603;-72
2022/09/13 10:27:22;;;;;;;9.67;4.07;;;;;;;;;;4973029;28;20532;-71
2022/09/13 10:29:51;;;;;;;4.93;2.13;;;;;;;;;;4967263;28;20507;-70
2022/09/13 10:32:19;;;;;;;3.30;1.70;;;;;;;;;;4961641;28;20465;-71
2022/09/13 10:34:51;;;;;;;4.93;1.73;;;;;;;;;;4963103;28;20521;-70
2022/09/13 10:37:21;;;;;;;2.83;1.30;;;;;;;;;;4966537;28;20544;-70
2022/09/13 10:39:56;;;;;;;3.60;1.70;;;;;;;;;;4967302;28;20485;-69
2022/09/13 10:42:27;;;;;;;4.10;1.40;;;;;;;;;;4967959;28;20508;-70
2022/09/13 10:45:02;;;;;;;5.60;1.63;;;;;;;;;;4960200;28;20562;-70
2022/09/13 10:47:34;;;;;;;3.10;1.20;;;;;;;;;;4968375;28;20471;-70
2022/09/13 10:50:19;;;;;;;9.13;1.53;;;;;;;;;;4966642;28;20472;-70
2022/09/13 10:52:48;;;;;;;4.30;1.37;;;;;;;;;;4958739;28;20552;-71
2022/09/13 10:55:31;;;;;;;3.17;1.00;;;;;;;;;;4968145;28;20485;-71
2022/09/13 10:58:26;;;;;;;3.20;1.00;;;;;;;;;;4963204;28;20493;-71
2022/09/13 11:01:18;;;;;;;4.50;1.10;;;;;;;;;;4944193;28;20472;-71
2022/09/13 11:03:57;;;;;;;3.73;1.33;;;;;;;;;;4972459;28;20803;-71
2022/09/13 11:06:34;;;;;;;5.20;1.10;;;;;;;;;;4967766;28;20742;-70
2022/09/13 11:09:06;;;;;;;4.20;1.10;;;;;;;;;;4966428;28;20461;-70
2022/09/13 11:11:38;;;;;;;2.80;0.90;;;;;;;;;;4976634;28;20497;-70
2022/09/13 11:14:11;;;;;;;5.33;1.27;;;;;;;;;;4970770;28;20586;-70
2022/09/13 11:16:45;;;;;;;2.87;1.20;;;;;;;;;;4971708;28;20475;-71
2022/09/13 11:19:29;;;;;;;7.67;1.57;;;;;;;;;;4971854;28;20477;-69
2022/09/13 11:22:09;;;;;;;7.00;1.33;;;;;;;;;;4974404;28;20467;-70
2022/09/13 11:24:44;;;;;;;3.53;1.00;;;;;;;;;;4965860;28;20469;-70
2022/09/13 11:27:16;;;;;;;4.40;1.27;;;;;;;;;;4967127;28;20494;-70
2022/09/13 11:29:49;;;;;;;7.43;1.73;;;;;;;;;;4960932;28;20511;-69
2022/09/13 11:32:23;;;;;;;4.40;1.17;;;;;;;;;;4962649;28;20465;-71
2022/09/13 11:35:01;;;;;;;5.27;0.83;;;;;;;;;;4968693;28;20487;-71
2022/09/13 11:37:39;;;;;;;3.73;1.13;;;;;;;;;;4962659;28;20444;-71
2022/09/13 11:40:21;;;;;;;4.17;0.80;;;;;;;;;;4961863;28;20530;-71
2022/09/13 11:42:53;;;;;;;5.27;1.20;;;;;;;;;;4960482;28;20818;-71
2022/09/13 11:45:29;;;;;;;5.10;1.30;;;;;;;;;;4962885;28;20507;-71
2022/09/13 11:48:35;;;;;;;10.17;1.20;;;;;;;;;;4960707;28;20571;-70
2022/09/13 11:51:05;;;;;;;1.87;0.80;;;;;;;;;;4969425;28;20725;-70
2022/09/13 11:53:44;;;;;;;3.70;1.33;;;;;;;;;;5000087;28;20495;-71
2022/09/13 11:56:14;;;;;;;4.33;1.07;;;;;;;;;;4978442;28;20574;-71
2022/09/13 11:58:45;;;;;;;1.93;0.67;;;;;;;;;;4967059;28;20493;-71
2022/09/13 12:01:19;;;;;;;4.23;1.20;;;;;;;;;;4969790;28;20461;-71
2022/09/13 12:04:06;;;;;;;3.33;0.70;;;;;;;;;;4965813;28;21185;-71
2022/09/13 12:06:41;;;;;;;2.33;1.13;;;;;;;;;;4971029;28;20622;-71
2022/09/13 12:09:16;;;;;;;4.10;0.80;;;;;;;;;;4972124;28;20530;-69
2022/09/13 12:11:58;;;;;;;6.40;2.10;;;;;;;;;;4963960;28;20513;-71
2022/09/13 12:14:30;;;;;;;7.40;0.90;;;;;;;;;;4967669;28;20489;-70
2022/09/13 12:16:59;;;;;;;3.80;0.70;;;;;;;;;;4971137;28;20584;-69
2022/09/13 12:19:29;;;;;;;8.40;0.90;;;;;;;;;;4972738;28;21100;-70
2022/09/13 12:21:58;;;;;;;3.47;0.70;;;;;;;;;;4970223;28;20472;-70
2022/09/13 12:24:32;;;;;;;3.30;0.70;;;;;;;;;;4962827;28;20529;-70
2022/09/13 12:27:09;;;;;;;9.00;0.90;;;;;;;;;;4967430;28;20467;-71
2022/09/13 12:29:41;;;;;;;6.30;0.60;;;;;;;;;;4971530;28;20472;-68
2022/09/13 12:32:10;;;;;;;3.73;0.73;;;;;;;;;;4965089;28;20595;-70
2022/09/13 12:34:55;;;;;;;4.10;0.83;;;;;;;;;;4990224;28;20488;-70
2022/09/13 12:37:39;;;;;;;4.23;0.93;;;;;;;;;;4978554;28;20553;-70
2022/09/13 12:40:27;;;;;;;4.27;0.77;;;;;;;;;;4967157;28;20472;-71
2022/09/13 12:43:15;;;;;;;4.87;0.70;;;;;;;;;;4970899;28;20606;-70
2022/09/13 12:46:00;;;;;;;2.43;0.50;;;;;;;;;;4986365;28;20496;-68
2022/09/13 12:48:41;;;;;;;5.87;1.00;;;;;;;;;;4982958;28;20460;-70
2022/09/13 12:51:21;;;;;;;3.13;0.77;;;;;;;;;;4989798;28;20475;-70
2022/09/13 12:54:04;;;;;;;5.83;2.57;;;;;;;;;;4990107;28;20559;-70
2022/09/13 12:56:46;;;;;;;3.03;0.80;;;;;;;;;;4997444;28;20537;-70
2022/09/13 12:59:34;;;;;;;5.33;0.90;;;;;;;;;;4975756;28;20457;-69
2022/09/13 13:02:04;;;;;;;5.20;0.90;;;;;;;;;;4972547;28;20500;-71
2022/09/13 13:04:35;;;;;;;4.30;0.90;;;;;;;;;;4973276;28;20757;-69
2022/09/13 13:07:06;;;;;;;3.33;0.87;;;;;;;;;;4983403;28;20477;-69
2022/09/13 13:09:41;;;;;;;4.37;0.93;;;;;;;;;;4988936;28;20909;-70
2022/09/13 13:12:10;;;;;;;2.80;0.87;;;;;;;;;;4973320;28;21992;-70
2022/09/13 13:14:52;;;;;;;2.20;0.70;;;;;;;;;;4988033;28;20492;-69
2022/09/13 13:17:37;;;;;;;2.83;1.00;;;;;;;;;;4992973;28;20555;-69
2022/09/13 13:20:19;;;;;;;8.03;0.77;;;;;;;;;;4976245;28;20457;-70
2022/09/13 13:22:51;;;;;;;3.97;1.20;;;;;;;;;;4956379;28;20480;-69
2022/09/13 13:25:31;;;;;;;3.90;0.80;;;;;;;;;;4989248;28;20463;-70
2022/09/13 13:28:06;;;;;;;3.73;0.93;;;;;;;;;;4989397;28;20601;-69
2022/09/13 13:30:52;;;;;;;1.97;0.80;;;;;;;;;;5010396;28;20858;-69
2022/09/13 13:33:27;;;;;;;3.30;0.63;;;;;;;;;;5073023;28;20448;-70
2022/09/13 13:35:55;;;;;;;11.87;1.00;;;;;;;;;;5065400;28;20512;-70
2022/09/13 13:38:43;;;;;;;5.83;1.17;;;;;;;;;;5057441;28;20530;-69
2022/09/13 13:41:31;;;;;;;3.90;0.87;;;;;;;;;;4990612;28;20451;-70
2022/09/13 13:43:58;;;;;;;3.10;0.90;;;;;;;;;;4957358;28;20872;-71
2022/09/13 13:46:30;;;;;;;3.07;0.80;;;;;;;;;;4989679;28;20471;-69
2022/09/13 13:49:17;;;;;;;7.73;1.50;;;;;;;;;;4970556;28;20457;-69
2022/09/13 13:51:45;;;;;;;6.00;1.13;;;;;;;;;;4971923;28;20476;-70
2022/09/13 13:54:27;;;;;;;4.77;0.80;;;;;;;;;;4988079;28;20495;-70
2022/09/13 13:56:55;;;;;;;6.60;0.90;;;;;;;;;;4988736;28;20464;-70
2022/09/13 13:59:26;;;;;;;3.37;0.70;;;;;;;;;;4989108;28;20541;-69
2022/09/13 14:01:58;;;;;;;4.37;1.10;;;;;;;;;;4975057;28;21036;-69
2022/09/13 14:04:45;;;;;;;4.03;0.83;;;;;;;;;;4979706;28;20533;-69
2022/09/13 14:07:23;;;;;;;3.57;0.80;;;;;;;;;;4990303;28;20521;-70
2022/09/13 14:09:54;;;;;;;6.20;0.90;;;;;;;;;;4983741;28;20464;-69
2022/09/13 14:12:27;;;;;;;4.40;1.23;;;;;;;;;;4980104;28;21106;-69
2022/09/13 14:15:20;;;;;;;4.27;0.97;;;;;;;;;;4983328;28;21048;-69
2022/09/13 14:18:09;;;;;;;7.47;0.87;;;;;;;;;;4997836;28;20468;-72
2022/09/13 14:20:40;;;;;;;4.73;0.90;;;;;;;;;;4961719;28;20484;-71
2022/09/13 14:23:19;;;;;;;4.40;0.77;;;;;;;;;;4971826;28;20509;-71
2022/09/13 14:26:06;;;;;;;3.60;1.00;;;;;;;;;;4971386;28;20983;-70
2022/09/13 14:28:38;;;;;;;5.10;1.27;;;;;;;;;;4987078;28;20453;-70
2022/09/13 14:31:20;;;;;;;5.90;1.00;;;;;;;;;;4991284;28;20479;-71
2022/09/13 14:33:54;;;;;;;4.30;0.87;;;;;;;;;;4972683;28;20473;-69
2022/09/13 14:36:37;;;;;;;4.60;1.20;;;;;;;;;;4985347;28;20476;-71
2022/09/13 14:39:10;;;;;;;4.97;0.77;;;;;;;;;;4973254;28;20748;-70
2022/09/13 14:41:42;;;;;;;3.30;1.43;;;;;;;;;;4978228;28;21136;-71
2022/09/13 14:44:20;;;;;;;7.13;0.90;;;;;;;;;;4988757;28;20479;-70
2022/09/13 14:46:49;;;;;;;5.43;0.87;;;;;;;;;;5007198;28;20543;-71
2022/09/13 14:49:25;;;;;;;4.10;0.70;;;;;;;;;;4996551;28;20461;-70
2022/09/13 14:51:56;;;;;;;4.63;1.07;;;;;;;;;;4977262;28;20517;-70
2022/09/13 14:54:29;;;;;;;6.73;1.13;;;;;;;;;;4990944;28;20488;-70
2022/09/13 14:56:57;;;;;;;6.93;1.00;;;;;;;;;;4987268;28;20453;-70
2022/09/13 14:59:28;;;;;;;7.77;1.03;;;;;;;;;;4988764;28;20521;-70
2022/09/13 15:02:04;;;;;;;3.90;1.27;;;;;;;;;;4979752;28;20484;-70
2022/09/13 15:04:47;;;;;;;3.43;0.60;;;;;;;;;;4987370;28;20859;-70
2022/09/13 15:07:20;;;;;;;6.10;1.00;;;;;;;;;;4984390;28;21136;-71
2022/09/13 15:09:53;;;;;;;3.40;1.10;;;;;;;;;;4972439;28;20574;-71